Terminal Aerodrome Forecast
Issued by NWS

Home | Current Version | Previous Version | Graphics & Text | Print | Product List | Glossary On
Versions: 1 2 3 4 5 6 7 8 9 10 11 12 13 14 15 16 17
709
FTUS43 KMPX 240014 AAA
TAFAXN
TAF AMD
KAXN 240014Z 2400/2424 11007KT 2SM BR VCSH OVC003
     FM240500 09004KT 3SM BR OVC005
     FM241000 02007KT P6SM OVC008
     FM241600 02012KT P6SM BKN012
     FM241900 02010KT P6SM SCT015=

USA.gov is the U.S. government's official web portal to all federal, state and local government web resources and services.